Time;durP1;ratioP1;P1;durP2;ratioP2;P2;SDS_P1;SDS_P2;PMS_P1;PMS_P2;Temp;Humidity;BMP_temperature;BMP_pressure;BME280_temperature;BME280_humidity;BME280_pressure;Samples;Min_cycle;Max_cycle;Signal;HPM_P1;HPM_P2
2022/10/27 00:01:21;;;;;;;11.95;4.95;;;10.40;1.00;;;;;;5015517;28;20065;-79
2022/10/27 00:03:50;;;;;;;12.90;4.90;;;10.40;1.00;;;;;;5015529;28;20080;-79
2022/10/27 00:06:16;;;;;;;10.05;4.80;;;10.40;1.00;;;;;;5014393;28;20029;-79
2022/10/27 00:08:42;;;;;;;15.27;6.35;;;10.30;1.00;;;;;;5015682;28;20061;-79
2022/10/27 00:11:08;;;;;;;11.65;4.80;;;10.50;1.00;;;;;;5015579;28;20022;-79
2022/10/27 00:13:34;;;;;;;13.70;4.75;;;10.40;1.00;;;;;;5015560;28;20113;-79
2022/10/27 00:16:02;;;;;;;14.15;4.75;;;10.50;1.00;;;;;;5015225;28;20033;-79
2022/10/27 00:18:29;;;;;;;12.20;5.15;;;10.40;1.00;;;;;;5015506;28;20469;-79
2022/10/27 00:21:13;;;;;;;16.38;5.03;;;10.40;1.00;;;;;;5015214;28;20477;-79
2022/10/27 00:23:39;;;;;;;10.52;5.22;;;10.30;1.00;;;;;;5015127;28;20041;-79
2022/10/27 00:26:06;;;;;;;11.30;4.97;;;10.40;1.00;;;;;;5015170;28;20026;-79
2022/10/27 00:28:32;;;;;;;11.73;5.38;;;10.40;1.00;;;;;;5015121;28;20080;-79
2022/10/27 00:31:04;;;;;;;17.33;5.00;;;10.30;1.00;;;;;;5014838;28;20490;-79
2022/10/27 00:33:30;;;;;;;18.92;5.57;;;10.40;1.00;;;;;;5015358;28;20107;-80
2022/10/27 00:35:56;;;;;;;18.02;6.15;;;10.50;1.00;;;;;;5013350;28;20401;-79
2022/10/27 00:38:22;;;;;;;15.52;6.25;;;10.50;1.00;;;;;;4995319;28;20018;-79
2022/10/27 00:40:48;;;;;;;14.35;5.40;;;10.40;1.00;;;;;;5006347;28;20382;-79
2022/10/27 00:43:37;;;;;;;14.55;5.07;;;10.50;1.00;;;;;;5014780;28;20046;-80
2022/10/27 00:46:22;;;;;;;13.55;5.50;;;10.40;1.00;;;;;;5014774;28;20014;-79
2022/10/27 00:48:50;;;;;;;16.00;6.00;;;10.50;1.00;;;;;;5015210;28;20070;-79
2022/10/27 00:51:17;;;;;;;18.50;5.88;;;10.50;1.00;;;;;;5014622;28;20041;-79
2022/10/27 00:53:43;;;;;;;17.27;5.60;;;10.50;1.00;;;;;;5014632;28;20022;-79
2022/10/27 00:56:09;;;;;;;14.88;6.32;;;10.60;1.00;;;;;;5014706;28;20076;-79
2022/10/27 00:58:35;;;;;;;12.15;5.13;;;10.50;1.00;;;;;;5014746;28;20110;-79
2022/10/27 01:01:01;;;;;;;13.23;5.65;;;10.60;1.00;;;;;;5014564;28;20101;-80
2022/10/27 01:03:28;;;;;;;14.40;6.18;;;10.50;1.00;;;;;;5014588;28;20038;-79
2022/10/27 01:05:55;;;;;;;13.85;5.53;;;10.50;1.00;;;;;;5014685;28;20521;-79
2022/10/27 01:08:22;;;;;;;17.58;5.90;;;10.50;1.00;;;;;;5014353;28;20362;-79
2022/10/27 01:10:49;;;;;;;23.55;6.20;;;10.60;1.00;;;;;;5014166;28;20485;-79
2022/10/27 01:13:15;;;;;;;17.80;6.70;;;10.60;1.00;;;;;;5014332;28;20032;-79
2022/10/27 01:15:49;;;;;;;15.90;6.55;;;10.70;1.00;;;;;;5014514;28;20029;-79
2022/10/27 01:18:30;;;;;;;16.17;6.50;;;10.70;1.00;;;;;;5013810;28;20030;-79
2022/10/27 01:21:04;;;;;;;14.65;7.18;;;10.70;1.00;;;;;;5014213;28;20425;-79
2022/10/27 01:23:51;;;;;;;20.00;7.70;;;10.60;1.00;;;;;;5014136;28;20371;-79
2022/10/27 01:26:43;;;;;;;13.80;7.20;;;10.60;1.00;;;;;;5014174;28;20022;-79
2022/10/27 01:29:45;;;;;;;18.90;8.40;;;10.50;1.00;;;;;;5014245;28;20038;-79
2022/10/27 01:32:32;;;;;;;19.35;9.07;;;10.70;1.00;;;;;;4994567;28;20030;-79
2022/10/27 01:35:03;;;;;;;23.15;9.25;;;10.90;1.00;;;;;;4994251;28;20034;-79
2022/10/27 01:37:37;;;;;;;20.00;9.43;;;10.80;1.00;;;;;;4994318;28;20026;-79
2022/10/27 01:40:27;;;;;;;22.50;10.02;;;10.80;1.00;;;;;;4994404;28;20023;-79
2022/10/27 01:43:06;;;;;;;20.38;10.07;;;10.70;1.00;;;;;;4994234;28;20069;-79
2022/10/27 01:45:35;;;;;;;25.27;10.70;;;10.80;1.00;;;;;;4993266;28;20053;-79
2022/10/27 01:48:03;;;;;;;25.70;11.25;;;10.90;1.00;;;;;;4994226;28;20035;-79
2022/10/27 01:50:34;;;;;;;23.67;11.25;;;10.90;1.00;;;;;;4994248;28;20402;-79
2022/10/27 01:53:00;;;;;;;30.55;13.00;;;11.10;1.00;;;;;;4994281;28;20063;-79
2022/10/27 01:55:25;;;;;;;26.98;12.65;;;11.20;1.00;;;;;;4994364;28;20446;-79
2022/10/27 01:57:59;;;;;;;34.90;13.45;;;11.30;1.00;;;;;;4994398;28;20027;-79
2022/10/27 02:00:25;;;;;;;40.50;14.40;;;11.50;1.00;;;;;;4994437;28;20031;-79
2022/10/27 02:03:02;;;;;;;33.05;14.40;;;11.60;1.00;;;;;;4994175;28;20106;-80
2022/10/27 02:05:46;;;;;;;32.53;12.98;;;11.60;1.00;;;;;;4994383;28;20023;-79
2022/10/27 02:08:23;;;;;;;31.73;13.35;;;11.80;1.00;;;;;;4994072;28;20109;-79
2022/10/27 02:11:04;;;;;;;33.03;13.13;;;11.80;1.00;;;;;;4994500;28;20122;-79
2022/10/27 02:13:33;;;;;;;29.65;12.52;;;11.80;1.00;;;;;;4994464;28;20022;-79
2022/10/27 02:16:04;;;;;;;35.10;13.75;;;11.70;1.00;;;;;;4993991;28;20109;-79
2022/10/27 02:18:37;;;;;;;30.35;12.98;;;11.90;1.00;;;;;;4993939;28;20065;-79
2022/10/27 02:21:06;;;;;;;30.15;12.93;;;12.10;1.00;;;;;;4994168;28;20027;-79
2022/10/27 02:23:34;;;;;;;31.25;13.48;;;12.00;1.00;;;;;;4993871;28;20031;-79
2022/10/27 02:26:17;;;;;;;33.45;13.63;;;12.10;1.00;;;;;;4994069;28;20077;-79
2022/10/27 02:28:54;;;;;;;29.85;12.95;;;12.20;1.00;;;;;;4994034;28;20018;-80
2022/10/27 02:31:25;;;;;;;30.33;12.57;;;12.20;1.00;;;;;;4996514;28;20475;-79
2022/10/27 02:33:51;;;;;;;;;;;12.30;1.00;;;;;;4998205;28;20022;-80
2022/10/27 02:36:17;;;;;;;32.15;12.77;;;12.40;1.00;;;;;;4997650;28;19975;-80
2022/10/27 02:38:42;;;;;;;29.33;14.70;;;12.50;1.00;;;;;;4997738;28;20458;-79
2022/10/27 02:41:08;;;;;;;30.67;13.90;;;12.50;1.00;;;;;;4996607;28;20057;-79
2022/10/27 02:43:33;;;;;;;29.55;13.10;;;12.60;1.00;;;;;;4997539;28;20076;-79
2022/10/27 02:45:59;;;;;;;34.28;13.02;;;12.70;1.00;;;;;;4997428;28;20389;-80
2022/10/27 02:48:25;;;;;;;32.72;13.23;;;12.70;1.00;;;;;;4997491;28;20048;-79
2022/10/27 02:50:50;;;;;;;29.13;12.77;;;12.70;1.00;;;;;;4997333;28;20477;-79
2022/10/27 02:53:16;;;;;;;37.83;14.10;;;12.70;1.00;;;;;;4997269;28;20351;-79
2022/10/27 02:55:41;;;;;;;29.80;13.05;;;12.90;1.00;;;;;;5014277;28;20025;-79
2022/10/27 02:58:14;;;;;;;26.38;13.05;;;12.90;1.00;;;;;;5016562;28;20168;-79
2022/10/27 03:00:39;;;;;;;31.45;12.63;;;12.90;1.00;;;;;;4997253;28;20060;-79
2022/10/27 03:03:05;;;;;;;24.38;12.13;;;12.90;1.00;;;;;;5010322;28;20117;-80
2022/10/27 03:05:31;;;;;;;30.90;12.73;;;13.00;1.00;;;;;;5016566;28;20039;-79
2022/10/27 03:07:56;;;;;;;23.88;12.70;;;13.00;1.00;;;;;;5016554;28;20069;-80
2022/10/27 03:10:22;;;;;;;27.08;12.23;;;12.90;1.00;;;;;;5016874;28;20092;-79
2022/10/27 03:12:48;;;;;;;27.35;12.68;;;12.80;1.00;;;;;;5016839;28;20058;-79
2022/10/27 03:15:14;;;;;;;32.28;12.70;;;12.90;1.00;;;;;;5016533;28;20028;-79
2022/10/27 03:17:44;;;;;;;26.63;12.27;;;13.00;1.00;;;;;;5016577;28;20105;-79
2022/10/27 03:20:10;;;;;;;25.40;12.45;;;13.00;1.00;;;;;;5016515;28;20022;-79
2022/10/27 03:22:37;;;;;;;23.75;13.02;;;13.00;1.00;;;;;;5016584;28;20084;-79
2022/10/27 03:25:03;;;;;;;29.70;14.10;;;13.00;1.00;;;;;;5016426;28;20458;-79
2022/10/27 03:27:28;;;;;;;23.10;13.55;;;13.00;1.00;;;;;;5016488;28;20022;-80
2022/10/27 03:29:54;;;;;;;24.50;12.85;;;13.00;1.00;;;;;;5016305;28;20022;-79
2022/10/27 03:32:19;;;;;;;22.98;12.10;;;13.00;1.00;;;;;;5016197;28;20037;-79
2022/10/27 03:34:45;;;;;;;23.70;11.82;;;12.90;1.00;;;;;;5015855;28;20033;-80
2022/10/27 03:37:10;;;;;;;22.60;11.73;;;12.90;1.00;;;;;;5015951;28;20083;-80
2022/10/27 03:39:36;;;;;;;21.85;11.10;;;12.80;1.00;;;;;;5016338;28;20350;-79
2022/10/27 03:42:02;;;;;;;20.08;11.43;;;12.70;1.00;;;;;;5015505;28;20389;-80
2022/10/27 03:44:27;;;;;;;22.42;11.07;;;12.60;1.00;;;;;;5016323;28;20168;-80
2022/10/27 03:46:53;;;;;;;21.33;10.95;;;12.60;1.00;;;;;;5015921;28;20034;-80
2022/10/27 03:49:18;;;;;;;18.20;10.40;;;12.60;1.00;;;;;;5015857;28;20042;-79
2022/10/27 03:51:44;;;;;;;21.55;10.70;;;12.60;1.00;;;;;;5015820;28;20030;-79
2022/10/27 03:54:09;;;;;;;20.00;11.43;;;12.50;1.00;;;;;;5015725;28;20028;-79
2022/10/27 03:56:35;;;;;;;20.80;11.07;;;12.30;1.00;;;;;;5015665;28;20021;-80
2022/10/27 03:59:00;;;;;;;17.10;10.57;;;12.30;1.00;;;;;;5015993;28;20029;-80
2022/10/27 04:01:33;;;;;;;22.10;10.85;;;12.30;1.00;;;;;;5015568;28;20076;-80
2022/10/27 04:03:59;;;;;;;20.65;10.80;;;12.20;1.00;;;;;;5015720;28;20112;-79
2022/10/27 04:06:24;;;;;;;18.95;10.13;;;12.20;1.00;;;;;;5015694;28;20058;-80
2022/10/27 04:08:50;;;;;;;16.98;10.32;;;12.20;1.00;;;;;;5015760;28;20036;-80
2022/10/27 04:11:16;;;;;;;17.63;10.18;;;12.40;1.00;;;;;;5015476;28;20157;-80
2022/10/27 04:13:41;;;;;;;21.20;11.43;;;12.30;1.00;;;;;;5015854;28;20026;-80
2022/10/27 04:16:07;;;;;;;21.52;10.70;;;12.20;1.00;;;;;;5015247;28;20095;-80
2022/10/27 04:18:33;;;;;;;23.60;10.45;;;12.20;1.00;;;;;;5015149;28;20025;-80
2022/10/27 04:21:03;;;;;;;18.30;10.20;;;12.10;1.00;;;;;;5015318;28;20022;-80
2022/10/27 04:23:29;;;;;;;19.80;9.90;;;12.10;1.00;;;;;;5015158;28;20172;-79
2022/10/27 04:25:55;;;;;;;24.75;9.93;;;12.20;1.00;;;;;;5015103;28;20053;-80
2022/10/27 04:28:21;;;;;;;18.42;10.35;;;12.30;1.00;;;;;;5015470;28;20466;-79
2022/10/27 04:30:46;;;;;;;21.38;10.68;;;12.40;1.00;;;;;;5014908;28;20036;-80
2022/10/27 04:33:12;;;;;;;22.67;11.30;;;12.40;1.00;;;;;;5015340;28;20473;-80
2022/10/27 04:35:38;;;;;;;19.77;10.55;;;12.50;1.00;;;;;;5014801;28;20037;-80
2022/10/27 04:38:04;;;;;;;21.00;10.63;;;12.30;1.00;;;;;;5015159;28;20018;-79
2022/10/27 04:40:29;;;;;;;24.42;10.98;;;12.50;1.00;;;;;;5014622;28;20060;-80
2022/10/27 04:42:55;;;;;;;21.88;11.05;;;12.50;1.00;;;;;;5014917;28;20117;-80
2022/10/27 04:45:21;;;;;;;24.52;11.30;;;12.50;1.00;;;;;;5014829;28;20033;-80
2022/10/27 04:47:46;;;;;;;20.83;10.13;;;12.60;1.00;;;;;;5014981;28;20083;-80
2022/10/27 04:50:13;;;;;;;17.48;10.73;;;12.70;1.00;;;;;;5014732;28;20021;-79
2022/10/27 04:52:39;;;;;;;20.10;10.57;;;12.80;1.00;;;;;;5013824;28;20061;-80
2022/10/27 04:55:05;;;;;;;24.42;10.80;;;12.80;1.00;;;;;;5014935;28;20064;-80
2022/10/27 04:57:31;;;;;;;19.05;10.23;;;12.90;1.00;;;;;;5014730;28;20427;-79
2022/10/27 04:59:56;;;;;;;22.27;10.13;;;13.00;1.00;;;;;;5014988;28;20030;-80
2022/10/27 05:02:22;;;;;;;24.45;9.77;;;13.00;1.00;;;;;;5014536;28;20366;-80
2022/10/27 05:04:47;;;;;;;23.05;11.00;;;13.10;1.00;;;;;;5014247;28;20026;-80
2022/10/27 05:07:13;;;;;;;18.40;10.02;;;13.10;1.00;;;;;;5014710;28;20018;-80
2022/10/27 05:09:38;;;;;;;18.60;10.35;;;13.20;1.00;;;;;;5014309;28;20040;-80
2022/10/27 05:12:04;;;;;;;25.73;10.00;;;13.20;1.00;;;;;;5014440;28;20030;-80
2022/10/27 05:14:30;;;;;;;16.95;9.95;;;13.20;1.00;;;;;;5014071;28;20207;-80
2022/10/27 05:16:55;;;;;;;25.13;10.35;;;13.30;1.00;;;;;;5014239;28;20053;-80
2022/10/27 05:19:21;;;;;;;25.00;10.63;;;13.30;1.00;;;;;;5014386;28;20080;-79
2022/10/27 05:21:46;;;;;;;19.10;9.10;;;13.30;1.00;;;;;;5014127;28;20038;-80
2022/10/27 05:24:12;;;;;;;26.05;10.07;;;13.30;1.00;;;;;;5014056;28;20022;-80
2022/10/27 05:26:37;;;;;;;17.75;9.20;;;13.30;1.00;;;;;;5014064;28;20053;-80
2022/10/27 05:29:03;;;;;;;18.77;9.65;;;13.40;1.00;;;;;;5014288;28;20432;-80
2022/10/27 05:31:28;;;;;;;19.13;9.43;;;13.40;1.00;;;;;;5013886;28;20556;-80
2022/10/27 05:33:54;;;;;;;16.05;9.48;;;13.40;1.00;;;;;;5013182;28;20029;-80
2022/10/27 05:36:19;;;;;;;20.02;8.77;;;13.40;1.00;;;;;;5013251;28;20030;-80
2022/10/27 05:38:45;;;;;;;19.58;9.32;;;13.50;1.00;;;;;;5012164;28;20072;-80
2022/10/27 05:41:11;;;;;;;17.40;8.05;;;13.40;1.00;;;;;;5000787;28;20050;-80
2022/10/27 05:43:37;;;;;;;17.55;7.85;;;13.50;1.00;;;;;;5009806;28;20033;-80
2022/10/27 05:46:04;;;;;;;16.67;8.38;;;13.50;1.00;;;;;;5012774;28;20022;-80
2022/10/27 05:48:30;;;;;;;18.00;7.80;;;13.50;1.00;;;;;;5014189;28;20097;-80
2022/10/27 05:50:55;;;;;;;21.65;8.43;;;13.50;1.00;;;;;;5013989;28;20488;-80
2022/10/27 05:53:21;;;;;;;18.20;8.40;;;13.50;1.00;;;;;;5013254;28;20033;-80
2022/10/27 05:55:47;;;;;;;15.63;7.95;;;13.50;1.00;;;;;;5007095;28;20040;-80
2022/10/27 05:58:12;;;;;;;15.25;7.53;;;13.50;1.00;;;;;;5012174;28;20029;-80
2022/10/27 06:00:38;;;;;;;14.95;7.43;;;13.50;1.00;;;;;;5005219;28;20044;-80
2022/10/27 06:03:13;;;;;;;15.48;7.30;;;13.50;1.00;;;;;;5011973;28;20033;-80
2022/10/27 06:05:39;;;;;;;13.45;7.53;;;13.50;1.00;;;;;;5015035;28;20057;-79
2022/10/27 06:08:04;;;;;;;13.27;6.13;;;13.50;1.00;;;;;;5017211;28;20476;-80
2022/10/27 06:10:30;;;;;;;12.30;6.82;;;13.40;1.00;;;;;;5017323;28;20026;-80
2022/10/27 06:13:05;;;;;;;11.52;7.55;;;13.40;1.00;;;;;;5017391;28;20405;-79
2022/10/27 06:15:33;;;;;;;13.18;6.45;;;13.40;1.00;;;;;;5017246;28;20022;-81
2022/10/27 06:17:58;;;;;;;11.73;6.55;;;13.40;1.00;;;;;;5015094;28;20096;-81
2022/10/27 06:20:24;;;;;;;12.77;6.47;;;13.40;1.00;;;;;;5015345;28;20102;-81
2022/10/27 06:22:50;;;;;;;15.52;7.10;;;13.40;99.90;;;;;;5013266;28;20100;-80
2022/10/27 06:25:15;;;;;;;11.70;6.70;;;13.30;99.90;;;;;;5014316;28;20084;-80
2022/10/27 06:27:41;;;;;;;9.55;5.63;;;13.20;99.90;;;;;;5014736;28;20026;-80
2022/10/27 06:30:07;;;;;;;16.35;6.80;;;13.20;99.90;;;;;;5017624;28;20041;-80
2022/10/27 06:32:37;;;;;;;12.00;6.95;;;13.20;99.90;;;;;;5017321;28;20034;-80
2022/10/27 06:35:02;;;;;;;12.57;6.65;;;13.20;99.90;;;;;;5017088;28;20041;-82
2022/10/27 06:37:28;;;;;;;13.65;6.68;;;13.10;99.90;;;;;;5017180;28;20030;-80
2022/10/27 06:39:54;;;;;;;12.57;6.65;;;13.00;99.90;;;;;;5017470;28;20343;-79
2022/10/27 06:42:21;;;;;;;9.60;6.10;;;13.00;99.90;;;;;;5016721;28;20046;-80
2022/10/27 06:44:47;;;;;;;13.30;6.43;;;13.00;99.90;;;;;;5014545;28;20048;-80
2022/10/27 06:47:13;;;;;;;10.82;6.70;;;13.00;99.90;;;;;;5015279;28;20537;-80
2022/10/27 06:49:39;;;;;;;11.50;6.53;;;13.00;99.90;;;;;;5014427;28;20021;-80
2022/10/27 06:52:04;;;;;;;15.20;6.65;;;13.10;99.90;;;;;;5015477;28;20381;-80
2022/10/27 06:54:30;;;;;;;15.48;6.22;;;13.20;99.90;;;;;;5016456;28;20053;-80
2022/10/27 06:56:55;;;;;;;12.38;6.28;;;13.20;99.90;;;;;;5016902;28;20041;-79
2022/10/27 06:59:21;;;;;;;10.20;6.07;;;13.40;99.90;;;;;;5015759;28;20512;-80
2022/10/27 07:01:47;;;;;;;13.07;6.35;;;13.40;99.90;;;;;;5016162;28;20046;-80
2022/10/27 07:04:12;;;;;;;11.48;6.40;;;13.40;99.90;;;;;;5015077;28;20029;-79
2022/10/27 07:06:38;;;;;;;12.10;6.93;;;13.40;99.90;;;;;;5009320;28;20449;-80
2022/10/27 07:09:12;;;;;;;10.48;6.03;;;13.40;99.90;;;;;;4997091;28;20026;-80
2022/10/27 07:11:37;;;;;;;7.45;5.43;;;13.50;99.90;;;;;;4997121;28;20033;-80
2022/10/27 07:14:03;;;;;;;12.48;6.10;;;13.50;99.90;;;;;;4996968;28;20367;-80
2022/10/27 07:16:29;;;;;;;11.00;6.13;;;13.70;99.90;;;;;;4996177;28;20110;-80
2022/10/27 07:18:54;;;;;;;12.27;6.20;;;13.70;99.90;;;;;;4996803;28;20022;-80
2022/10/27 07:21:20;;;;;;;13.55;6.85;;;13.80;99.90;;;;;;5004280;28;20022;-80
2022/10/27 07:23:45;;;;;;;12.10;6.80;;;13.90;99.90;;;;;;5015911;28;20497;-80
2022/10/27 07:26:11;;;;;;;12.93;7.07;;;13.90;99.90;;;;;;5016544;28;20026;-80
2022/10/27 07:28:37;;;;;;;12.30;7.30;;;14.10;99.90;;;;;;5016449;28;20064;-80
2022/10/27 07:31:02;;;;;;;11.63;6.80;;;14.20;99.90;;;;;;5012181;28;20114;-80
2022/10/27 07:33:28;;;;;;;11.77;7.00;;;14.50;99.90;;;;;;5002459;28;20478;-82
2022/10/27 07:35:53;;;;;;;10.48;6.75;;;14.60;99.90;;;;;;5013768;28;20026;-82
2022/10/27 07:38:19;;;;;;;10.50;6.90;;;15.00;99.90;;;;;;5013928;28;20113;-81
2022/10/27 07:40:46;;;;;;;11.02;6.88;;;15.20;99.90;;;;;;5014106;28;20140;-81
2022/10/27 07:43:11;;;;;;;10.52;6.78;;;15.70;99.90;;;;;;5008138;28;20042;-82
2022/10/27 07:45:39;;;;;;;10.05;6.22;;;15.60;99.90;;;;;;5015287;28;20030;-82
2022/10/27 07:48:09;;;;;;;9.73;6.60;;;16.20;99.90;;;;;;5014768;28;20022;-81
2022/10/27 07:50:35;;;;;;;10.38;6.00;;;16.90;99.90;;;;;;5013777;28;20462;-81
2022/10/27 07:53:01;;;;;;;10.32;6.47;;;16.80;99.90;;;;;;5009970;28;20114;-81
2022/10/27 07:55:28;;;;;;;9.25;6.40;;;16.50;99.90;;;;;;5011161;28;20497;-81
2022/10/27 07:58:12;;;;;;;9.73;6.72;;;16.40;99.90;;;;;;5012175;28;20057;-81
2022/10/27 08:00:40;;;;;;;11.73;6.43;;;16.40;99.90;;;;;;5012515;28;20044;-81
2022/10/27 08:03:09;;;;;;;11.02;7.65;;;16.20;99.90;;;;;;5007349;28;20038;-81
2022/10/27 08:05:36;;;;;;;12.18;7.03;;;16.20;99.90;;;;;;5013218;28;20441;-81
2022/10/27 08:08:03;;;;;;;12.25;6.93;;;16.30;99.90;;;;;;5012395;28;20061;-81
2022/10/27 08:10:31;;;;;;;12.10;6.60;;;20.30;93.90;;;;;;5001785;28;20032;-80
2022/10/27 08:12:56;;;;;;;10.18;6.82;;;21.60;47.50;;;;;;5004645;28;20030;-81
2022/10/27 08:15:23;;;;;;;10.10;6.30;;;23.60;30.80;;;;;;5007970;28;20080;-80
2022/10/27 08:17:53;;;;;;;8.95;6.30;;;24.80;17.10;;;;;;5013496;28;20025;-81
2022/10/27 08:20:18;;;;;;;;;;;26.40;7.90;;;;;;5009953;28;20026;-81
2022/10/27 08:22:44;;;;;;;10.80;5.10;;;26.90;1.00;;;;;;5006401;28;19917;-81
2022/10/27 08:25:09;;;;;;;6.65;5.07;;;25.60;1.00;;;;;;5006723;28;20436;-81
2022/10/27 08:27:35;;;;;;;8.90;5.78;;;25.60;1.00;;;;;;5000879;28;20022;-80
2022/10/27 08:30:00;;;;;;;11.85;5.63;;;26.70;1.00;;;;;;4996815;28;20612;-80
2022/10/27 08:32:26;;;;;;;5.20;4.70;;;27.90;1.00;;;;;;5000470;28;20036;-80
2022/10/27 08:34:52;;;;;;;5.85;4.63;;;29.90;1.00;;;;;;4999749;28;20050;-80
2022/10/27 08:37:17;;;;;;;7.22;4.97;;;30.20;1.00;;;;;;5004912;28;20485;-81
2022/10/27 08:39:43;;;;;;;6.40;4.60;;;30.20;1.00;;;;;;5013999;28;20045;-82
2022/10/27 08:42:13;;;;;;;5.30;4.78;;;30.40;1.00;;;;;;5014345;28;20124;-81
2022/10/27 08:44:49;;;;;;;6.60;4.10;;;29.80;1.00;;;;;;5014619;28;20022;-82
2022/10/27 08:47:20;;;;;;;7.18;4.15;;;30.00;1.00;;;;;;5015197;28;20030;-81
2022/10/27 08:49:48;;;;;;;5.22;4.00;;;26.70;1.00;;;;;;5015257;28;20022;-81
2022/10/27 08:52:35;;;;;;;5.63;3.80;;;24.30;1.00;;;;;;5011372;28;20050;-79
2022/10/27 08:55:12;;;;;;;5.22;4.30;;;22.70;1.00;;;;;;5011327;28;20445;-78
2022/10/27 08:57:41;;;;;;;5.40;3.65;;;21.60;1.00;;;;;;5012938;28;20057;-78
2022/10/27 09:00:14;;;;;;;4.55;3.45;;;20.90;1.00;;;;;;5009238;28;20033;-78
2022/10/27 09:02:54;;;;;;;9.10;3.95;;;20.50;1.00;;;;;;5004834;28;20041;-78
2022/10/27 09:05:38;;;;;;;8.38;4.30;;;20.10;1.00;;;;;;5001567;28;20030;-78
2022/10/27 09:08:16;;;;;;;5.32;3.80;;;20.00;1.00;;;;;;5006068;28;20053;-78
2022/10/27 09:10:59;;;;;;;7.45;3.97;;;20.10;1.00;;;;;;5003530;28;20091;-78
2022/10/27 09:13:37;;;;;;;5.97;3.65;;;19.90;1.00;;;;;;5011361;28;20026;-78
2022/10/27 09:16:10;;;;;;;4.03;3.42;;;19.50;1.00;;;;;;5000187;28;20041;-78
2022/10/27 09:18:46;;;;;;;7.93;3.75;;;19.70;1.00;;;;;;5002161;28;20054;-78
2022/10/27 09:21:17;;;;;;;6.13;3.30;;;19.60;1.00;;;;;;5011760;28;20040;-78
2022/10/27 09:23:57;;;;;;;7.18;4.13;;;19.50;1.00;;;;;;5010148;28;20030;-77
2022/10/27 09:26:28;;;;;;;7.68;3.67;;;19.30;1.00;;;;;;5004260;28;20133;-77
2022/10/27 09:28:54;;;;;;;5.95;3.75;;;19.40;1.00;;;;;;5010681;28;20025;-77
2022/10/27 09:31:35;;;;;;;5.40;3.33;;;19.40;1.00;;;;;;5000576;28;20109;-77
2022/10/27 09:34:36;;;;;;;6.30;3.40;;;19.10;1.00;;;;;;5012227;28;20381;-77
2022/10/27 09:37:27;;;;;;;6.53;3.35;;;18.80;1.00;;;;;;5006616;28;20100;-77
2022/10/27 09:39:53;;;;;;;6.60;3.20;;;18.80;1.00;;;;;;5011326;28;20054;-78
2022/10/27 09:42:20;;;;;;;5.32;2.95;;;18.70;1.00;;;;;;5011321;28;20078;-79
2022/10/27 09:44:54;;;;;;;5.68;3.05;;;18.70;1.00;;;;;;5010060;28;20030;-78
2022/10/27 09:47:26;;;;;;;5.93;2.88;;;18.60;1.00;;;;;;5007992;28;20449;-78
2022/10/27 09:49:54;;;;;;;4.75;2.78;;;18.60;1.00;;;;;;5002997;28;20018;-78
2022/10/27 09:52:33;;;;;;;6.15;2.90;;;18.50;1.00;;;;;;5007401;28;20092;-78
2022/10/27 09:54:58;;;;;;;4.10;2.72;;;18.50;1.00;;;;;;5026256;28;20032;-78
2022/10/27 09:57:37;;;;;;;6.10;3.00;;;18.50;1.00;;;;;;5007694;28;20026;-78
2022/10/27 10:00:15;;;;;;;5.28;2.67;;;18.30;1.00;;;;;;5005264;28;20030;-77
2022/10/27 10:02:54;;;;;;;3.92;2.80;;;18.30;1.00;;;;;;5008587;28;20030;-78
2022/10/27 10:05:27;;;;;;;7.20;3.20;;;18.60;1.00;;;;;;5012072;28;20058;-78
2022/10/27 10:08:20;;;;;;;4.03;2.58;;;18.70;1.00;;;;;;5011228;28;20030;-78
2022/10/27 10:11:00;;;;;;;5.93;2.70;;;18.80;1.00;;;;;;5011397;28;20482;-78
2022/10/27 10:13:27;;;;;;;6.40;2.63;;;18.90;1.00;;;;;;5002746;28;20496;-78
2022/10/27 10:16:14;;;;;;;3.83;2.55;;;18.90;1.00;;;;;;5003084;28;20038;-77
2022/10/27 10:18:45;;;;;;;5.40;3.10;;;18.60;1.00;;;;;;5000367;28;20362;-78
2022/10/27 10:21:13;;;;;;;6.30;2.60;;;18.70;1.00;;;;;;5008394;28;20120;-78
2022/10/27 10:23:47;;;;;;;4.32;2.67;;;18.80;1.00;;;;;;5010299;28;20022;-78
2022/10/27 10:26:18;;;;;;;5.72;2.63;;;18.80;1.00;;;;;;5005603;28;20037;-78
2022/10/27 10:28:45;;;;;;;3.67;2.30;;;18.80;1.00;;;;;;5011341;28;20496;-78
2022/10/27 10:31:21;;;;;;;7.65;3.15;;;19.00;1.00;;;;;;5002591;28;20049;-78
2022/10/27 10:33:47;;;;;;;6.15;3.10;;;18.80;1.00;;;;;;4998780;28;20041;-78
2022/10/27 10:36:34;;;;;;;4.43;3.17;;;19.00;1.00;;;;;;4995450;28;20027;-78
2022/10/27 10:39:00;;;;;;;4.03;2.70;;;19.50;1.00;;;;;;4997377;28;20034;-78
2022/10/27 10:41:29;;;;;;;5.57;2.70;;;19.60;1.00;;;;;;5006485;28;20068;-78
2022/10/27 10:44:12;;;;;;;6.27;2.77;;;19.90;1.00;;;;;;5007488;28;20048;-78
2022/10/27 10:46:55;;;;;;;6.70;3.03;;;20.10;1.00;;;;;;5007337;28;20034;-78
2022/10/27 10:49:28;;;;;;;6.80;3.20;;;20.00;1.00;;;;;;4995467;28;20049;-78
2022/10/27 10:52:14;;;;;;;6.35;2.97;;;20.10;1.00;;;;;;5006924;28;20026;-78
2022/10/27 10:54:43;;;;;;;7.05;3.40;;;19.90;1.00;;;;;;5006522;28;20037;-78
2022/10/27 10:57:40;;;;;;;2.80;2.47;;;19.80;1.00;;;;;;5000729;28;20101;-78
2022/10/27 11:00:15;;;;;;;5.55;2.60;;;19.80;1.00;;;;;;5005521;28;20092;-78
2022/10/27 11:02:49;;;;;;;6.20;2.60;;;19.70;1.00;;;;;;5011246;28;20698;-79
2022/10/27 11:05:27;;;;;;;6.18;2.80;;;19.70;1.00;;;;;;5013729;28;20030;-79
2022/10/27 11:07:53;;;;;;;5.28;2.65;;;19.80;1.00;;;;;;5013124;28;20121;-79
2022/10/27 11:10:26;;;;;;;4.72;3.03;;;19.90;1.00;;;;;;5015090;28;20037;-79
2022/10/27 11:13:17;;;;;;;5.88;2.55;;;20.10;1.00;;;;;;5014471;28;20025;-79
2022/10/27 11:16:04;;;;;;;7.63;2.97;;;20.30;1.00;;;;;;5012776;28;20026;-79
2022/10/27 11:18:42;;;;;;;4.50;2.28;;;20.60;1.00;;;;;;5009281;28;20044;-79
2022/10/27 11:21:32;;;;;;;4.53;2.22;;;20.60;1.00;;;;;;5013902;28;20030;-79
2022/10/27 11:24:17;;;;;;;6.22;2.38;;;20.80;1.00;;;;;;5011062;28;20421;-79
2022/10/27 11:27:05;;;;;;;6.45;2.33;;;20.90;1.00;;;;;;5014307;28;20032;-78
2022/10/27 11:29:44;;;;;;;3.88;2.42;;;20.90;1.00;;;;;;5001246;28;20112;-79
2022/10/27 11:32:19;;;;;;;5.03;2.20;;;20.70;1.00;;;;;;5009936;28;20061;-79
2022/10/27 11:35:19;;;;;;;4.32;1.90;;;20.70;1.00;;;;;;5014591;28;20486;-79
2022/10/27 11:38:14;;;;;;;6.45;2.47;;;20.80;1.00;;;;;;5009508;28;20033;-79
2022/10/27 11:40:57;;;;;;;4.43;2.00;;;21.20;1.00;;;;;;5008238;28;20161;-79
2022/10/27 11:43:35;;;;;;;3.35;1.70;;;21.30;1.00;;;;;;5013588;28;20034;-79
2022/10/27 11:46:05;;;;;;;4.50;1.90;;;21.60;1.00;;;;;;5014145;28;20117;-79
2022/10/27 11:48:55;;;;;;;3.05;1.67;;;21.80;1.00;;;;;;5013846;28;20029;-79
2022/10/27 11:51:46;;;;;;;6.03;2.17;;;21.80;1.00;;;;;;5010004;28;20034;-79
2022/10/27 11:54:12;;;;;;;3.15;1.90;;;21.60;1.00;;;;;;5014004;28;20042;-79
2022/10/27 11:56:48;;;;;;;3.67;1.52;;;21.40;1.00;;;;;;5013612;28;20036;-79
2022/10/27 11:59:39;;;;;;;3.65;1.80;;;20.80;1.00;;;;;;5013163;28;20021;-79
2022/10/27 12:02:37;;;;;;;4.13;1.63;;;20.70;1.00;;;;;;5011850;28;20464;-79
2022/10/27 12:05:12;;;;;;;3.55;1.92;;;20.70;1.00;;;;;;5010527;28;20037;-79
2022/10/27 12:07:57;;;;;;;4.88;1.73;;;20.60;1.00;;;;;;5013582;28;20037;-79
2022/10/27 12:10:36;;;;;;;7.05;3.00;;;20.40;1.00;;;;;;5005847;28;20042;-79
2022/10/27 12:13:28;;;;;;;5.70;2.50;;;20.20;1.00;;;;;;5010217;28;20034;-79
2022/10/27 12:15:59;;;;;;;3.63;2.45;;;20.40;1.00;;;;;;5009080;28;20370;-79
2022/10/27 12:18:35;;;;;;;5.90;2.50;;;20.50;1.00;;;;;;5006536;28;20041;-79
2022/10/27 12:21:10;;;;;;;6.45;1.83;;;20.40;1.00;;;;;;5013249;28;20044;-79
2022/10/27 12:23:43;;;;;;;2.67;1.70;;;20.30;1.00;;;;;;5013201;28;20038;-79
2022/10/27 12:26:19;;;;;;;2.33;1.50;;;20.20;1.00;;;;;;5010267;28;20030;-80
2022/10/27 12:28:45;;;;;;;1.98;1.42;;;20.30;1.00;;;;;;5012251;28;20109;-80
2022/10/27 12:31:19;;;;;;;3.83;1.83;;;20.40;1.00;;;;;;5005672;28;20118;-79
2022/10/27 12:33:55;;;;;;;6.57;1.80;;;20.20;1.00;;;;;;5011620;28;20499;-80
2022/10/27 12:36:25;;;;;;;3.40;1.45;;;20.20;1.00;;;;;;5013143;28;20131;-80
2022/10/27 12:39:18;;;;;;;4.63;1.50;;;20.40;1.00;;;;;;5003710;28;20084;-79
2022/10/27 12:41:49;;;;;;;2.90;1.35;;;20.40;1.00;;;;;;5011329;28;20038;-79
2022/10/27 12:44:49;;;;;;;3.75;1.33;;;20.30;1.00;;;;;;5013137;28;20121;-79
2022/10/27 12:47:20;;;;;;;2.83;1.65;;;20.40;1.00;;;;;;5009514;28;20029;-79
2022/10/27 12:50:09;;;;;;;4.55;1.45;;;20.30;1.00;;;;;;5012805;28;20104;-79
2022/10/27 12:52:47;;;;;;;3.65;1.25;;;20.30;1.00;;;;;;5006995;28;20030;-79
2022/10/27 12:55:23;;;;;;;2.75;1.40;;;20.40;1.00;;;;;;5009143;28;20474;-79
2022/10/27 12:58:00;;;;;;;4.05;1.65;;;20.40;1.00;;;;;;5007234;28;20025;-80
2022/10/27 13:00:26;;;;;;;4.53;1.77;;;20.10;1.00;;;;;;5011330;28;20034;-79
2022/10/27 13:03:00;;;;;;;5.03;2.13;;;20.00;1.00;;;;;;4997498;28;20022;-79
2022/10/27 13:06:10;;;;;;;3.05;1.40;;;20.00;1.00;;;;;;5012614;28;20038;-79
2022/10/27 13:09:03;;;;;;;3.50;1.60;;;19.70;1.00;;;;;;4975381;28;20027;-79